createdAt,value
2019-05-02T00:00:51.314Z,7.45
2019-05-02T00:03:23.435Z,4.25
2019-05-02T00:05:52.445Z,5.03
2019-05-02T00:08:23.085Z,5.28
2019-05-02T00:10:51.954Z,6.35
2019-05-02T00:13:21.045Z,6.80
2019-05-02T00:15:51.568Z,4.78
2019-05-02T00:18:23.715Z,4.20
2019-05-02T00:20:57.108Z,4.30
2019-05-02T00:23:27.934Z,5.05
2019-05-02T00:25:55.325Z,5.22
2019-05-02T00:28:24.436Z,4.62
2019-05-02T00:30:53.785Z,5.25
2019-05-02T00:33:23.125Z,4.60
2019-05-02T00:35:51.984Z,4.75
2019-05-02T00:38:21.005Z,4.83
2019-05-02T00:40:50.227Z,4.50
2019-05-02T00:43:22.475Z,4.90
2019-05-02T00:45:55.059Z,5.15
2019-05-02T00:48:27.625Z,5.15
2019-05-02T00:50:57.205Z,5.53
2019-05-02T00:53:26.066Z,4.83
2019-05-02T00:55:56.655Z,4.75
2019-05-02T00:58:27.272Z,6.45
2019-05-02T01:01:04.373Z,6.65
2019-05-02T01:03:41.717Z,4.95
2019-05-02T01:06:14.477Z,5.00
2019-05-02T01:08:42.764Z,5.03
2019-05-02T01:11:12.175Z,4.65
2019-05-02T01:13:41.416Z,6.28
2019-05-02T01:16:15.170Z,6.58
2019-05-02T01:18:42.558Z,4.97
2019-05-02T01:21:11.845Z,5.15
2019-05-02T01:23:40.622Z,4.67
2019-05-02T01:26:11.117Z,5.65
2019-05-02T01:28:56.995Z,4.60
2019-05-02T01:31:44.096Z,5.55
2019-05-02T01:34:23.235Z,5.37
2019-05-02T01:37:12.356Z,4.62
2019-05-02T01:39:42.750Z,5.20
2019-05-02T01:42:11.655Z,4.60
2019-05-02T01:44:40.606Z,6.22
2019-05-02T01:47:11.158Z,5.00
2019-05-02T01:49:40.455Z,4.50
2019-05-02T01:52:09.443Z,5.00
2019-05-02T01:54:45.814Z,5.40
2019-05-02T01:57:12.115Z,4.92
2019-05-02T01:59:40.996Z,4.87
2019-05-02T02:02:14.225Z,5.60
2019-05-02T02:04:52.154Z,6.03
2019-05-02T02:07:21.715Z,4.90
2019-05-02T02:09:53.105Z,4.65
2019-05-02T02:12:23.489Z,5.08
2019-05-02T02:14:55.513Z,7.62
2019-05-02T02:17:29.165Z,4.95
2019-05-02T02:20:14.096Z,5.00
2019-05-02T02:22:52.335Z,5.47
2019-05-02T02:25:36.191Z,5.20
2019-05-02T02:28:04.725Z,4.90
2019-05-02T02:30:36.226Z,6.47
2019-05-02T02:33:17.633Z,4.85
2019-05-02T02:35:50.597Z,5.12
2019-05-02T02:38:19.876Z,4.85
2019-05-02T02:40:49.182Z,4.87
2019-05-02T02:43:33.440Z,5.10
2019-05-02T02:45:57.772Z,5.80
2019-05-02T02:48:26.194Z,5.37
2019-05-02T02:50:59.098Z,5.62
2019-05-02T02:53:33.420Z,6.28
2019-05-02T02:56:11.195Z,5.33
2019-05-02T02:58:47.538Z,5.03
2019-05-02T03:01:27.233Z,5.20
2019-05-02T03:03:48.635Z,5.15
2019-05-02T03:06:27.236Z,6.83
2019-05-02T03:09:04.716Z,5.35
2019-05-02T03:11:56.162Z,5.45
2019-05-02T03:14:31.186Z,5.42
2019-05-02T03:17:06.334Z,5.62
2019-05-02T03:19:40.438Z,5.00
2019-05-02T03:22:16.656Z,5.60
2019-05-02T03:24:46.801Z,5.72
2019-05-02T03:27:29.744Z,5.62
2019-05-02T03:30:29.280Z,5.12
2019-05-02T03:33:02.601Z,5.65
2019-05-02T03:35:29.719Z,5.42
2019-05-02T03:37:57.146Z,5.95
2019-05-02T03:40:32.084Z,5.50
2019-05-02T03:43:03.376Z,5.72
2019-05-02T03:45:56.705Z,5.40
2019-05-02T03:48:34.079Z,5.40
2019-05-02T03:51:19.184Z,5.83
2019-05-02T03:53:45.987Z,5.78
2019-05-02T03:56:26.155Z,5.83
2019-05-02T03:59:00.156Z,6.03
2019-05-02T04:01:34.701Z,6.35
2019-05-02T04:04:04.319Z,5.60
2019-05-02T04:06:39.106Z,5.95
2019-05-02T04:09:12.665Z,6.78
2019-05-02T04:11:58.306Z,5.65
2019-05-02T04:14:37.550Z,6.33
2019-05-02T04:17:05.205Z,7.17
2019-05-02T04:19:39.205Z,6.53
2019-05-02T04:22:12.588Z,6.10
2019-05-02T04:24:47.786Z,5.75
2019-05-02T04:27:34.170Z,6.47
2019-05-02T04:30:11.335Z,5.97
2019-05-02T04:32:42.935Z,6.00
2019-05-02T04:35:13.087Z,6.33
2019-05-02T04:37:46.186Z,5.65
2019-05-02T04:40:18.986Z,5.83
2019-05-02T04:43:05.498Z,6.58
2019-05-02T04:45:50.847Z,6.03
2019-05-02T04:48:03.792Z,6.12
2019-05-02T04:50:32.415Z,6.08
2019-05-02T04:53:08.536Z,6.03
2019-05-02T04:55:42.825Z,5.90
2019-05-02T04:58:23.981Z,6.62
2019-05-02T05:00:56.772Z,6.75
2019-05-02T05:03:25.497Z,7.25
2019-05-02T05:06:07.097Z,6.37
2019-05-02T05:08:33.395Z,5.97
2019-05-02T05:13:34.056Z,7.80
2019-05-02T05:16:14.855Z,6.33
2019-05-02T05:18:43.924Z,6.20
2019-05-02T05:21:17.847Z,5.87
2019-05-02T05:23:56.312Z,6.47
2019-05-02T05:26:33.705Z,6.45
2019-05-02T05:29:02.525Z,6.42
2019-05-02T05:31:31.018Z,6.58
2019-05-02T05:34:05.115Z,6.03
2019-05-02T05:36:37.469Z,7.47
2019-05-02T05:39:17.607Z,6.00
2019-05-02T05:44:23.102Z,6.97
2019-05-02T05:46:55.155Z,6.40
2019-05-02T05:49:29.177Z,6.15
2019-05-02T05:52:04.255Z,6.35
2019-05-02T05:54:41.729Z,6.83
2019-05-02T05:57:16.462Z,6.35
2019-05-02T05:59:44.403Z,7.85
2019-05-02T06:05:02.511Z,6.25
2019-05-02T06:10:02.379Z,6.20
2019-05-02T06:12:30.355Z,7.03
2019-05-02T06:15:01.819Z,6.05
2019-05-02T06:17:31.425Z,6.15
2019-05-02T06:20:02.135Z,6.78
2019-05-02T06:25:08.444Z,6.22
2019-05-02T06:27:34.365Z,6.53
2019-05-02T06:30:07.455Z,6.55
2019-05-02T06:32:36.459Z,6.72
2019-05-02T06:35:07.175Z,7.00
2019-05-02T06:37:36.395Z,6.53
2019-05-02T06:40:09.547Z,6.20
2019-05-02T06:42:38.615Z,6.50
2019-05-02T06:45:11.685Z,6.37
2019-05-02T06:47:41.558Z,6.45
2019-05-02T06:50:17.096Z,6.47
2019-05-02T06:52:46.175Z,7.03
2019-05-02T06:55:18.145Z,6.80
2019-05-02T06:57:48.266Z,7.60
2019-05-02T07:00:19.105Z,7.20
2019-05-02T07:05:33.265Z,6.42
2019-05-02T07:08:06.395Z,7.05
2019-05-02T07:10:44.669Z,6.95
2019-05-02T07:13:16.979Z,6.67
2019-05-02T07:16:01.404Z,6.58
2019-05-02T07:18:42.148Z,8.60
2019-05-02T07:21:12.231Z,7.28
2019-05-02T07:23:55.052Z,7.33
2019-05-02T07:26:24.575Z,6.60
2019-05-02T07:28:59.134Z,8.45
2019-05-02T07:31:36.403Z,9.05
2019-05-02T07:34:08.063Z,7.80
2019-05-02T07:36:36.776Z,5.83
2019-05-02T07:39:11.197Z,6.70
2019-05-02T07:41:43.366Z,6.75
2019-05-02T07:44:12.753Z,9.23
2019-05-02T07:46:51.717Z,6.83
2019-05-02T07:49:12.915Z,8.28
2019-05-02T07:51:44.758Z,8.80
2019-05-02T07:54:24.904Z,6.55
2019-05-02T07:57:02.178Z,6.95
2019-05-02T07:59:36.233Z,10.68
2019-05-02T08:02:20.233Z,6.20
2019-05-02T08:04:49.855Z,9.10
2019-05-02T08:10:22.188Z,8.40
2019-05-02T08:12:52.385Z,8.95
2019-05-02T08:15:26.893Z,7.20
2019-05-02T08:17:58.449Z,9.75
2019-05-02T08:20:29.469Z,13.03
2019-05-02T08:22:58.190Z,6.25
2019-05-02T08:25:32.075Z,10.53
2019-05-02T08:28:22.583Z,8.08
2019-05-02T08:30:55.259Z,7.75
2019-05-02T08:33:29.319Z,9.33
2019-05-02T08:35:59.076Z,10.58
2019-05-02T08:38:29.315Z,7.25
2019-05-02T08:41:01.083Z,7.33
2019-05-02T08:46:03.975Z,8.35
2019-05-02T08:48:41.607Z,6.65
2019-05-02T08:51:11.488Z,10.55
2019-05-02T08:53:45.066Z,7.35
2019-05-02T08:56:40.865Z,12.85
2019-05-02T08:59:09.662Z,11.35
2019-05-02T09:01:39.515Z,18.30
2019-05-02T09:04:09.875Z,13.75
2019-05-02T09:06:39.643Z,7.42
2019-05-02T09:09:12.958Z,16.60
2019-05-02T09:11:56.044Z,10.45
2019-05-02T09:14:15.115Z,13.70
2019-05-02T09:16:46.259Z,17.60
2019-05-02T09:19:21.467Z,8.95
2019-05-02T09:21:48.338Z,12.73
2019-05-02T09:24:23.236Z,9.03
2019-05-02T09:26:51.938Z,17.52
2019-05-02T09:29:37.278Z,7.75
2019-05-02T09:32:07.135Z,8.73
2019-05-02T09:34:42.247Z,9.60
2019-05-02T09:37:12.080Z,17.17
2019-05-02T09:39:43.805Z,13.45
2019-05-02T09:42:15.664Z,10.78
2019-05-02T09:47:17.693Z,13.68
2019-05-02T09:49:49.069Z,15.80
2019-05-02T09:52:22.130Z,14.13
2019-05-02T09:54:51.949Z,11.85
2019-05-02T09:57:28.103Z,15.40
2019-05-02T10:00:02.353Z,23.32
2019-05-02T10:02:35.606Z,13.50
2019-05-02T10:05:10.125Z,10.93
2019-05-02T10:07:48.469Z,14.75
2019-05-02T10:10:21.820Z,10.15
2019-05-02T10:12:55.153Z,10.85
2019-05-02T10:15:26.176Z,11.40
2019-05-02T10:18:08.781Z,12.93
2019-05-02T10:20:36.386Z,16.27
2019-05-02T10:23:04.514Z,13.40
2019-05-02T10:25:38.871Z,21.42
2019-05-02T10:28:24.626Z,14.87
2019-05-02T10:30:57.427Z,17.25
2019-05-02T10:33:33.567Z,16.52
2019-05-02T10:36:02.633Z,13.80
2019-05-02T10:38:32.603Z,18.85
2019-05-02T10:41:16.105Z,11.88
2019-05-02T10:43:53.920Z,14.93
2019-05-02T10:46:27.769Z,10.70
2019-05-02T10:51:51.839Z,12.35
2019-05-02T10:54:20.530Z,20.52
2019-05-02T10:56:48.155Z,16.20
2019-05-02T10:59:22.295Z,15.08
2019-05-02T11:01:57.213Z,12.98
2019-05-02T11:04:30.105Z,14.63
2019-05-02T11:07:02.477Z,15.63
2019-05-02T11:09:34.614Z,15.10
2019-05-02T11:12:06.923Z,11.33
2019-05-02T11:14:42.281Z,13.48
2019-05-02T11:17:22.658Z,15.65
2019-05-02T11:19:56.824Z,12.58
2019-05-02T11:22:28.273Z,13.03
2019-05-02T11:24:59.113Z,16.87
2019-05-02T11:30:02.571Z,22.40
2019-05-02T11:32:32.716Z,12.37
2019-05-02T11:35:09.564Z,11.38
2019-05-02T11:37:38.585Z,20.32
2019-05-02T11:40:13.145Z,13.43
2019-05-02T11:42:47.155Z,17.85
2019-05-02T11:45:23.204Z,12.70
2019-05-02T11:48:09.364Z,10.03
2019-05-02T11:50:48.311Z,11.35
2019-05-02T11:53:34.243Z,9.13
2019-05-02T11:56:18.274Z,10.03
2019-05-02T11:58:55.819Z,11.22
2019-05-02T12:01:35.585Z,11.60
2019-05-02T12:04:00.093Z,10.60
2019-05-02T12:06:32.980Z,9.83
2019-05-02T12:09:06.450Z,10.13
2019-05-02T12:11:39.075Z,10.45
2019-05-02T12:14:17.784Z,10.00
2019-05-02T12:16:52.849Z,11.28
2019-05-02T12:19:24.784Z,10.30
2019-05-02T12:21:59.395Z,16.00
2019-05-02T12:24:36.260Z,9.13
2019-05-02T12:27:08.135Z,11.43
2019-05-02T12:29:42.484Z,6.83
2019-05-02T12:32:15.760Z,11.35
2019-05-02T12:34:46.996Z,9.58
2019-05-02T12:37:21.897Z,11.68
2019-05-02T12:39:56.215Z,15.88
2019-05-02T12:42:35.001Z,13.00
2019-05-02T12:48:02.400Z,11.12
2019-05-02T12:50:36.183Z,12.40
2019-05-02T12:53:10.056Z,9.70
2019-05-02T12:55:46.215Z,10.50
2019-05-02T12:58:21.888Z,14.33
2019-05-02T13:00:53.085Z,13.90
2019-05-02T13:03:39.295Z,10.32
2019-05-02T13:06:08.195Z,12.30
2019-05-02T13:08:41.366Z,7.17
2019-05-02T13:11:14.162Z,8.28
2019-05-02T13:13:45.736Z,12.68
2019-05-02T13:16:18.633Z,11.38
2019-05-02T13:18:47.412Z,7.60
2019-05-02T13:21:20.804Z,12.43
2019-05-02T13:24:16.362Z,8.53
2019-05-02T13:26:46.951Z,10.08
2019-05-02T13:29:18.345Z,10.58
2019-05-02T13:31:49.445Z,10.82
2019-05-02T13:34:22.041Z,6.12
2019-05-02T13:36:52.555Z,9.13
2019-05-02T13:39:24.823Z,12.98
2019-05-02T13:41:54.344Z,12.13
2019-05-02T13:44:28.972Z,13.98
2019-05-02T13:46:57.998Z,12.23
2019-05-02T13:49:27.195Z,14.85
2019-05-02T13:51:57.185Z,7.10
2019-05-02T13:54:26.300Z,9.03
2019-05-02T13:56:58.115Z,10.25
2019-05-02T13:59:28.674Z,17.45
2019-05-02T14:02:00.204Z,15.05
2019-05-02T14:04:32.519Z,18.05
2019-05-02T14:07:07.727Z,17.85
2019-05-02T14:09:39.163Z,18.80
2019-05-02T14:12:11.849Z,14.95
2019-05-02T14:14:42.380Z,12.43
2019-05-02T14:17:13.204Z,12.90
2019-05-02T14:19:43.641Z,19.77
2019-05-02T14:22:13.695Z,16.67
2019-05-02T14:24:42.661Z,13.95
2019-05-02T14:27:17.181Z,20.32
2019-05-02T14:29:46.006Z,14.85
2019-05-02T14:32:23.218Z,21.45
2019-05-02T14:34:47.017Z,11.00
2019-05-02T14:37:15.745Z,16.57
2019-05-02T14:39:46.325Z,17.12
2019-05-02T14:42:24.482Z,16.00
2019-05-02T14:45:07.191Z,19.00
2019-05-02T14:47:19.724Z,10.38
2019-05-02T14:49:48.594Z,11.97
2019-05-02T14:52:22.146Z,24.67
2019-05-02T14:54:52.539Z,14.20
2019-05-02T14:57:27.070Z,17.82
2019-05-02T14:59:59.113Z,9.45
2019-05-02T15:02:44.984Z,13.60
2019-05-02T15:05:12.765Z,12.68
2019-05-02T15:07:42.137Z,17.30
2019-05-02T15:10:12.605Z,11.90
2019-05-02T15:12:42.023Z,16.17
2019-05-02T15:15:12.228Z,8.23
2019-05-02T15:17:42.100Z,13.80
2019-05-02T15:20:12.940Z,8.90
2019-05-02T15:22:43.325Z,10.15
2019-05-02T15:25:17.550Z,13.05
2019-05-02T15:30:16.057Z,20.72
2019-05-02T15:35:22.329Z,15.35
2019-05-02T15:37:48.329Z,16.80
2019-05-02T15:40:47.331Z,11.38
2019-05-02T15:42:52.099Z,7.62
2019-05-02T15:47:52.716Z,9.78
2019-05-02T15:50:25.608Z,17.70
2019-05-02T15:52:57.325Z,9.13
2019-05-02T15:55:25.896Z,12.63
2019-05-02T15:57:56.273Z,14.45
2019-05-02T16:00:32.202Z,12.65
2019-05-02T16:03:04.233Z,10.58
2019-05-02T16:05:36.665Z,13.48
2019-05-02T16:08:08.686Z,9.88
2019-05-02T16:10:40.037Z,7.42
2019-05-02T16:13:15.469Z,11.68
2019-05-02T16:15:42.771Z,13.58
2019-05-02T16:18:12.749Z,20.70
2019-05-02T16:21:02.202Z,11.12
2019-05-02T16:23:29.488Z,12.37
2019-05-02T16:25:52.416Z,14.93
2019-05-02T16:28:21.363Z,14.03
2019-05-02T16:30:52.574Z,11.15
2019-05-02T16:33:22.616Z,12.15
2019-05-02T16:35:54.635Z,13.73
2019-05-02T16:38:32.385Z,13.25
2019-05-02T16:41:02.318Z,13.28
2019-05-02T16:43:34.895Z,14.38
2019-05-02T16:46:06.641Z,16.12
2019-05-02T16:48:37.757Z,15.60
2019-05-02T16:51:27.660Z,14.33
2019-05-02T16:53:38.105Z,12.75
2019-05-02T16:56:11.624Z,10.98
2019-05-02T16:58:47.082Z,15.08
2019-05-02T17:01:19.615Z,14.60
2019-05-02T17:03:48.016Z,18.37
2019-05-02T17:06:22.385Z,9.20
2019-05-02T17:08:58.757Z,15.65
2019-05-02T17:11:34.512Z,21.02
2019-05-02T17:14:06.996Z,13.43
2019-05-02T17:16:37.355Z,12.35
2019-05-02T17:19:12.273Z,19.42
2019-05-02T17:21:53.093Z,14.95
2019-05-02T17:24:23.837Z,10.85
2019-05-02T17:26:53.095Z,9.43
2019-05-02T17:29:25.765Z,11.35
2019-05-02T17:31:59.222Z,12.82
2019-05-02T17:34:30.713Z,8.98
2019-05-02T17:37:04.476Z,12.28
2019-05-02T17:39:37.314Z,11.15
2019-05-02T17:42:12.475Z,10.25
2019-05-02T17:44:44.060Z,11.10
2019-05-02T17:47:16.463Z,13.32
2019-05-02T17:49:47.313Z,13.30
2019-05-02T17:52:42.730Z,6.67
2019-05-02T17:55:12.155Z,11.97
2019-05-02T17:57:41.968Z,9.95
2019-05-02T18:00:21.554Z,12.13
2019-05-02T18:02:53.299Z,11.48
2019-05-02T18:05:31.316Z,10.82
2019-05-02T18:07:59.322Z,15.30
2019-05-02T18:10:32.322Z,12.63
2019-05-02T18:13:09.366Z,9.88
2019-05-02T18:15:45.117Z,10.35
2019-05-02T18:18:22.675Z,10.60
2019-05-02T18:20:54.703Z,10.60
2019-05-02T18:23:28.946Z,8.88
2019-05-02T18:26:02.723Z,10.85
2019-05-02T18:28:31.126Z,7.65
2019-05-02T18:31:06.265Z,9.03
2019-05-02T18:33:41.009Z,11.00
2019-05-02T18:36:09.605Z,8.43
2019-05-02T18:41:12.122Z,10.55
2019-05-02T18:44:02.712Z,8.35
2019-05-02T18:46:36.801Z,11.48
2019-05-02T18:49:08.195Z,6.72
2019-05-02T18:51:36.972Z,12.03
2019-05-02T18:54:15.356Z,6.53
2019-05-02T18:56:51.166Z,10.45
2019-05-02T18:59:28.645Z,8.03
2019-05-02T19:01:59.551Z,8.73
2019-05-02T19:04:38.185Z,8.80
2019-05-02T19:07:07.385Z,11.80
2019-05-02T19:09:48.406Z,8.15
2019-05-02T19:12:19.471Z,9.88
2019-05-02T19:14:45.566Z,9.03
2019-05-02T19:17:16.985Z,9.03
2019-05-02T19:19:48.125Z,8.80
2019-05-02T19:22:18.555Z,10.15
2019-05-02T19:24:47.315Z,8.60
2019-05-02T19:27:21.148Z,16.07
2019-05-02T19:29:54.791Z,8.80
2019-05-02T19:32:32.007Z,6.92
2019-05-02T19:35:06.736Z,14.13
2019-05-02T19:37:36.680Z,10.20
2019-05-02T19:40:08.153Z,10.08
2019-05-02T19:42:38.875Z,12.45
2019-05-02T19:45:12.560Z,11.00
2019-05-02T19:47:42.132Z,8.88
2019-05-02T19:50:38.529Z,11.95
2019-05-02T19:53:15.213Z,8.13
2019-05-02T19:55:40.295Z,8.28
2019-05-02T19:58:09.294Z,9.63
2019-05-02T20:00:44.469Z,8.63
2019-05-02T20:03:21.758Z,12.15
2019-05-02T20:05:48.401Z,10.38
2019-05-02T20:08:22.886Z,10.45
2019-05-02T20:10:56.828Z,9.60
2019-05-02T20:13:28.045Z,10.50
2019-05-02T20:16:02.522Z,8.03
2019-05-02T20:18:42.416Z,9.08
2019-05-02T20:21:11.775Z,9.20
2019-05-02T20:23:45.595Z,10.05
2019-05-02T20:26:17.267Z,11.57
2019-05-02T20:28:49.836Z,9.48
2019-05-02T20:31:21.690Z,9.63
2019-05-02T20:33:52.012Z,8.03
2019-05-02T20:36:23.044Z,8.70
2019-05-02T20:38:52.761Z,8.03
2019-05-02T20:41:26.305Z,8.70
2019-05-02T20:43:55.155Z,7.25
2019-05-02T20:46:28.023Z,8.73
2019-05-02T20:49:03.388Z,8.18
2019-05-02T20:51:42.408Z,10.68
2019-05-02T20:54:12.660Z,9.20
2019-05-02T20:56:43.327Z,6.25
2019-05-02T20:59:12.786Z,10.45
2019-05-02T21:01:43.030Z,7.10
2019-05-02T21:04:12.212Z,12.35
2019-05-02T21:06:44.515Z,9.05
2019-05-02T21:09:19.074Z,6.33
2019-05-02T21:11:50.195Z,8.43
2019-05-02T21:14:21.649Z,13.85
2019-05-02T21:16:52.005Z,10.15
2019-05-02T21:19:23.395Z,8.53
2019-05-02T21:21:52.641Z,9.80
2019-05-02T21:24:22.098Z,9.95
2019-05-02T21:26:52.503Z,11.18
2019-05-02T21:29:22.863Z,7.62
2019-05-02T21:31:54.735Z,9.45
2019-05-02T21:34:25.085Z,11.10
2019-05-02T21:36:58.074Z,8.23
2019-05-02T21:39:31.899Z,8.68
2019-05-02T21:42:03.144Z,7.75
2019-05-02T21:44:32.381Z,7.47
2019-05-02T21:47:11.325Z,5.95
2019-05-02T21:49:56.124Z,6.97
2019-05-02T21:52:34.075Z,6.05
2019-05-02T21:55:22.395Z,8.33
2019-05-02T21:57:55.245Z,8.30
2019-05-02T22:00:27.115Z,6.47
2019-05-02T22:03:01.928Z,7.65
2019-05-02T22:05:31.708Z,7.08
2019-05-02T22:08:04.123Z,8.10
2019-05-02T22:10:36.394Z,7.83
2019-05-02T22:13:11.134Z,6.67
2019-05-02T22:15:42.035Z,8.48
2019-05-02T22:18:14.905Z,5.85
2019-05-02T22:20:55.215Z,8.08
2019-05-02T22:23:24.201Z,6.00
2019-05-02T22:25:56.765Z,5.60
2019-05-02T22:28:32.549Z,7.62
2019-05-02T22:31:03.208Z,6.67
2019-05-02T22:33:36.368Z,7.12
2019-05-02T22:36:07.716Z,5.67
2019-05-02T22:38:42.374Z,5.67
2019-05-02T22:41:13.075Z,7.25
2019-05-02T22:43:45.250Z,8.08
2019-05-02T22:46:18.390Z,7.37
2019-05-02T22:48:53.035Z,7.60
2019-05-02T22:51:22.500Z,5.83
2019-05-02T22:53:55.864Z,5.42
2019-05-02T22:56:27.185Z,5.97
2019-05-02T22:58:57.555Z,6.42
2019-05-02T23:01:26.324Z,5.90
2019-05-02T23:03:56.875Z,5.97
2019-05-02T23:06:30.735Z,6.10
2019-05-02T23:09:01.893Z,7.53
2019-05-02T23:11:34.055Z,6.92
2019-05-02T23:14:04.075Z,6.65
2019-05-02T23:16:46.175Z,5.60
2019-05-02T23:19:36.675Z,5.90
2019-05-02T23:22:07.305Z,5.90
2019-05-02T23:24:42.581Z,7.00
2019-05-02T23:27:22.374Z,5.45
2019-05-02T23:29:53.315Z,5.92
2019-05-02T23:34:52.326Z,6.08
2019-05-02T23:37:26.035Z,5.80
2019-05-02T23:39:58.146Z,5.80
2019-05-02T23:42:32.355Z,6.58
2019-05-02T23:45:05.423Z,6.72
2019-05-02T23:47:35.674Z,6.35
2019-05-02T23:50:12.003Z,6.12
2019-05-02T23:52:51.126Z,5.78
2019-05-02T23:55:25.236Z,5.53
2019-05-02T23:57:54.046Z,6.12
